createdAt,value
2023-05-19T00:01:09.019Z,21.60
2023-05-19T00:05:12.870Z,21.64
2023-05-19T00:09:14.423Z,21.77
2023-05-19T00:13:16.042Z,21.69
2023-05-19T00:17:17.727Z,21.86
2023-05-19T00:21:19.638Z,21.77
2023-05-19T00:25:21.224Z,21.73
2023-05-19T00:29:22.630Z,21.65
2023-05-19T00:33:23.985Z,21.55
2023-05-19T00:37:25.382Z,21.46
2023-05-19T00:41:26.828Z,21.40
2023-05-19T00:45:29.226Z,21.30
2023-05-19T00:49:30.702Z,21.29
2023-05-19T00:53:33.937Z,21.21
2023-05-19T00:57:35.685Z,21.15
2023-05-19T01:01:37.234Z,21.17
2023-05-19T01:05:41.690Z,21.14
2023-05-19T01:09:43.473Z,21.10
2023-05-19T01:13:45.617Z,21.04
2023-05-19T01:18:07.352Z,21.02
2023-05-19T01:22:13.186Z,21.01
2023-05-19T01:26:14.732Z,20.94
2023-05-19T01:30:25.386Z,20.84
2023-05-19T01:34:27.663Z,20.77
2023-05-19T01:38:29.939Z,20.71
2023-05-19T01:42:37.200Z,20.68
2023-05-19T01:46:38.821Z,20.63
2023-05-19T01:50:41.916Z,20.66
2023-05-19T01:54:43.364Z,20.47
2023-05-19T01:58:47.439Z,20.60
2023-05-19T02:03:03.871Z,20.63
2023-05-19T02:07:25.958Z,20.52
2023-05-19T02:11:38.441Z,20.54
2023-05-19T02:15:45.450Z,20.42
2023-05-19T02:19:47.234Z,20.35
2023-05-19T02:23:51.475Z,20.28
2023-05-19T02:27:52.919Z,20.26
2023-05-19T02:31:54.398Z,20.29
2023-05-19T02:35:57.148Z,20.22
2023-05-19T02:39:58.554Z,20.21
2023-05-19T02:43:59.987Z,20.21
2023-05-19T02:48:01.468Z,20.18
2023-05-19T02:52:03.798Z,20.12
2023-05-19T02:56:05.202Z,20.15
2023-05-19T03:00:07.885Z,20.13
2023-05-19T03:04:09.547Z,20.04
2023-05-19T03:08:11.002Z,20.00
2023-05-19T03:12:12.528Z,20.15
2023-05-19T03:16:14.068Z,20.00
2023-05-19T03:20:18.386Z,19.98
2023-05-19T03:24:19.849Z,19.99
2023-05-19T03:28:21.442Z,19.87
2023-05-19T03:32:22.951Z,19.80
2023-05-19T03:36:24.404Z,19.78
2023-05-19T03:40:25.830Z,19.75
2023-05-19T03:44:27.249Z,19.69
2023-05-19T03:48:28.604Z,19.75
2023-05-19T03:52:29.988Z,19.75
2023-05-19T03:56:32.699Z,19.69
2023-05-19T04:00:34.366Z,19.92
2023-05-19T04:04:37.349Z,19.91
2023-05-19T04:08:41.569Z,19.92
2023-05-19T04:12:43.000Z,19.90
2023-05-19T04:16:44.426Z,19.98
2023-05-19T04:20:45.832Z,20.17
2023-05-19T04:24:47.728Z,20.04
2023-05-19T04:28:49.136Z,20.26
2023-05-19T04:32:50.949Z,19.57
2023-05-19T04:36:53.463Z,19.18
2023-05-19T04:40:56.313Z,19.19
2023-05-19T04:44:58.122Z,20.06
2023-05-19T04:49:01.170Z,20.48
2023-05-19T04:53:02.622Z,20.88
2023-05-19T04:57:04.550Z,19.71
2023-05-19T05:01:05.955Z,21.03
2023-05-19T05:05:08.007Z,21.25
2023-05-19T05:09:10.507Z,21.48
2023-05-19T05:13:12.192Z,21.42
2023-05-19T05:17:14.030Z,21.15
2023-05-19T05:21:15.859Z,20.94
2023-05-19T05:25:18.007Z,19.68
2023-05-19T05:29:20.052Z,21.11
2023-05-19T05:33:22.244Z,20.84
2023-05-19T05:37:23.812Z,22.39
2023-05-19T05:41:25.266Z,21.53
2023-05-19T05:45:26.725Z,22.25
2023-05-19T05:49:28.439Z,23.99
2023-05-19T05:53:32.212Z,22.99
2023-05-19T05:57:35.473Z,23.49
2023-05-19T06:01:37.277Z,24.34
2023-05-19T06:05:39.148Z,26.09
2023-05-19T06:09:40.708Z,23.09
2023-05-19T06:13:42.171Z,22.89
2023-05-19T06:17:43.635Z,26.92
2023-05-19T06:21:45.157Z,25.35
2023-05-19T06:25:46.822Z,24.14
2023-05-19T06:29:48.349Z,23.64
2023-05-19T06:33:49.680Z,25.73
2023-05-19T06:37:51.300Z,26.69
2023-05-19T06:41:52.646Z,28.62
2023-05-19T06:45:54.246Z,27.91
2023-05-19T06:49:55.821Z,29.77
2023-05-19T06:53:57.395Z,27.82
2023-05-19T06:57:58.845Z,29.23
2023-05-19T07:02:02.412Z,30.56
2023-05-19T07:06:05.681Z,31.42
2023-05-19T07:10:08.898Z,30.14
2023-05-19T07:14:10.270Z,30.73
2023-05-19T07:18:11.706Z,32.21
2023-05-19T07:22:13.102Z,32.56
2023-05-19T07:26:14.500Z,31.58
2023-05-19T07:30:15.966Z,32.97
2023-05-19T07:34:17.376Z,33.11
2023-05-19T07:38:18.837Z,33.27
2023-05-19T07:42:20.326Z,33.59
2023-05-19T07:46:22.264Z,33.66
2023-05-19T07:50:23.826Z,32.89
2023-05-19T07:54:25.361Z,32.91
2023-05-19T07:58:26.867Z,31.81
2023-05-19T08:02:28.315Z,29.50
2023-05-19T08:06:30.103Z,33.51
2023-05-19T08:10:31.689Z,33.43
2023-05-19T08:14:34.776Z,28.04
2023-05-19T08:18:36.148Z,28.33
2023-05-19T08:22:37.651Z,31.51
2023-05-19T08:26:39.003Z,32.05
2023-05-19T08:30:40.413Z,31.32
2023-05-19T08:34:42.132Z,28.79
2023-05-19T08:38:43.588Z,28.11
2023-05-19T08:42:45.838Z,32.34
2023-05-19T08:46:47.911Z,32.92
2023-05-19T08:51:08.122Z,29.86
2023-05-19T08:55:21.611Z,33.99
2023-05-19T08:59:23.224Z,35.44
2023-05-19T09:03:26.525Z,34.75
2023-05-19T09:07:30.149Z,30.86
2023-05-19T09:11:32.693Z,31.83
2023-05-19T09:15:36.796Z,33.87
2023-05-19T09:19:43.189Z,29.82
2023-05-19T09:23:47.425Z,30.55
2023-05-19T09:27:49.604Z,34.18
2023-05-19T09:31:51.732Z,35.60
2023-05-19T09:35:55.223Z,35.20
2023-05-19T09:39:56.643Z,34.36
2023-05-19T09:43:58.472Z,37.15
2023-05-19T09:48:04.651Z,32.48
2023-05-19T09:52:07.772Z,35.95
2023-05-19T09:56:09.956Z,35.65
2023-05-19T10:00:14.706Z,37.11
2023-05-19T10:04:17.147Z,34.69
2023-05-19T10:08:18.669Z,36.03
2023-05-19T10:12:20.892Z,33.38
2023-05-19T10:16:26.623Z,30.02
2023-05-19T10:20:28.503Z,26.84
2023-05-19T10:24:29.874Z,29.21
2023-05-19T10:28:36.868Z,30.35
2023-05-19T10:32:40.392Z,33.14
2023-05-19T10:36:48.440Z,35.92
2023-05-19T10:40:58.771Z,33.95
2023-05-19T10:45:17.827Z,34.32
2023-05-19T10:49:22.750Z,33.53
2023-05-19T10:53:33.256Z,34.33
2023-05-19T10:57:35.443Z,34.57
2023-05-19T11:01:38.795Z,34.85
2023-05-19T11:05:40.256Z,34.05
2023-05-19T11:09:41.696Z,35.18
2023-05-19T11:13:47.990Z,34.26
2023-05-19T11:17:50.378Z,31.99
2023-05-19T11:21:54.863Z,34.45
2023-05-19T11:25:56.357Z,32.94
2023-05-19T11:30:00.333Z,34.63
2023-05-19T11:34:02.140Z,33.58
2023-05-19T11:38:03.737Z,31.77
2023-05-19T11:42:05.378Z,35.01
2023-05-19T11:46:09.388Z,33.80
2023-05-19T11:50:12.725Z,31.08
2023-05-19T11:54:14.242Z,31.47
2023-05-19T11:58:16.557Z,30.88
2023-05-19T12:02:25.056Z,32.18
2023-05-19T12:06:27.728Z,33.77
2023-05-19T12:10:34.348Z,28.53
2023-05-19T12:14:36.063Z,33.80
2023-05-19T12:18:38.479Z,28.91
2023-05-19T12:22:39.992Z,30.17
2023-05-19T12:26:41.407Z,32.10
2023-05-19T12:30:48.385Z,28.69
2023-05-19T12:34:53.749Z,30.60
2023-05-19T12:38:55.781Z,31.16
2023-05-19T12:42:59.214Z,28.77
2023-05-19T12:47:04.935Z,31.12
2023-05-19T12:51:06.373Z,31.79
2023-05-19T12:55:09.125Z,32.18
2023-05-19T12:59:10.624Z,31.98
2023-05-19T13:03:20.338Z,31.63
2023-05-19T13:07:22.204Z,32.31
2023-05-19T13:11:23.587Z,29.55
2023-05-19T13:15:26.737Z,28.77
2023-05-19T13:19:28.300Z,28.24
2023-05-19T13:23:29.684Z,30.10
2023-05-19T13:27:31.046Z,30.75
2023-05-19T13:31:32.631Z,31.50
2023-05-19T13:35:42.454Z,29.30
2023-05-19T13:39:43.985Z,30.01
2023-05-19T13:43:45.362Z,31.28
2023-05-19T13:47:46.708Z,29.14
2023-05-19T13:51:48.280Z,30.93
2023-05-19T13:55:52.912Z,28.53
2023-05-19T14:00:02.722Z,29.32
2023-05-19T14:04:05.604Z,28.77
2023-05-19T14:08:07.767Z,30.74
2023-05-19T14:12:12.065Z,29.44
2023-05-19T14:16:13.508Z,30.72
2023-05-19T14:20:15.293Z,28.17
2023-05-19T14:24:16.746Z,31.46
2023-05-19T14:28:18.112Z,29.65
2023-05-19T14:32:19.811Z,29.41
2023-05-19T14:36:21.515Z,31.12
2023-05-19T14:40:22.891Z,30.86
2023-05-19T14:44:24.341Z,28.98
2023-05-19T14:48:25.859Z,29.93
2023-05-19T14:52:27.317Z,30.33
2023-05-19T14:56:28.803Z,30.82
2023-05-19T15:00:30.310Z,30.94
2023-05-19T15:04:31.829Z,29.78
2023-05-19T15:08:33.523Z,31.65
2023-05-19T15:12:35.030Z,32.01
2023-05-19T15:16:36.541Z,30.23
2023-05-19T15:20:38.038Z,28.91
2023-05-19T15:24:41.118Z,29.89
2023-05-19T15:28:42.597Z,29.94
2023-05-19T15:32:43.999Z,29.76
2023-05-19T15:36:45.630Z,29.12
2023-05-19T15:40:47.161Z,30.72
2023-05-19T15:44:48.793Z,28.04
2023-05-19T15:48:50.443Z,28.75
2023-05-19T15:52:51.983Z,30.35
2023-05-19T15:56:53.368Z,30.74
2023-05-19T16:00:54.772Z,29.15
2023-05-19T16:04:56.245Z,29.28
2023-05-19T16:08:57.832Z,28.13
2023-05-19T16:12:59.186Z,28.26
2023-05-19T16:17:03.116Z,28.49
2023-05-19T16:21:04.785Z,29.48
2023-05-19T16:25:07.127Z,28.59
2023-05-19T16:29:08.622Z,27.25
2023-05-19T16:33:10.104Z,26.45
2023-05-19T16:37:11.546Z,27.82
2023-05-19T16:41:12.952Z,28.57
2023-05-19T16:45:17.347Z,28.81
2023-05-19T16:49:18.714Z,29.31
2023-05-19T16:53:20.085Z,29.05
2023-05-19T16:57:21.617Z,28.22
2023-05-19T17:01:23.227Z,28.42
2023-05-19T17:05:24.724Z,29.06
2023-05-19T17:09:26.392Z,27.86
2023-05-19T17:13:33.547Z,27.19
2023-05-19T17:17:34.971Z,27.93
2023-05-19T17:21:36.337Z,27.67
2023-05-19T17:25:37.837Z,28.37
2023-05-19T17:29:39.189Z,28.82
2023-05-19T17:33:41.181Z,28.90
2023-05-19T17:37:42.553Z,28.85
2023-05-19T17:41:43.934Z,28.31
2023-05-19T17:45:45.390Z,27.24
2023-05-19T17:49:47.691Z,26.93
2023-05-19T17:53:49.346Z,26.49
2023-05-19T17:57:51.101Z,27.47
2023-05-19T18:01:52.780Z,26.55
2023-05-19T18:05:54.552Z,27.41
2023-05-19T18:09:56.478Z,27.77
2023-05-19T18:13:57.924Z,27.68
2023-05-19T18:17:59.854Z,27.48
2023-05-19T18:22:01.303Z,27.75
2023-05-19T18:26:02.640Z,27.60
2023-05-19T18:30:04.731Z,27.86
2023-05-19T18:34:06.388Z,26.16
2023-05-19T18:38:07.868Z,28.20
2023-05-19T18:42:09.297Z,27.68
2023-05-19T18:46:11.268Z,27.13
2023-05-19T18:50:13.003Z,26.89
2023-05-19T18:54:14.760Z,26.69
2023-05-19T18:58:18.052Z,27.16
2023-05-19T19:02:19.508Z,26.02
2023-05-19T19:06:22.711Z,26.15
2023-05-19T19:10:24.357Z,26.20
2023-05-19T19:14:26.054Z,25.84
2023-05-19T19:18:27.668Z,26.30
2023-05-19T19:22:29.110Z,26.58
2023-05-19T19:26:30.583Z,27.21
2023-05-19T19:30:32.235Z,25.31
2023-05-19T19:34:33.866Z,25.43
2023-05-19T19:38:36.603Z,26.84
2023-05-19T19:42:38.525Z,26.20
2023-05-19T19:46:39.974Z,26.49
2023-05-19T19:50:41.976Z,26.45
2023-05-19T19:54:43.460Z,25.55
2023-05-19T19:58:45.102Z,26.11
2023-05-19T20:06:53.021Z,25.83
2023-05-19T20:10:55.128Z,25.62
2023-05-19T20:14:56.580Z,26.12
2023-05-19T20:18:58.086Z,25.68
2023-05-19T20:22:59.548Z,25.66
2023-05-19T20:27:01.053Z,25.40
2023-05-19T20:31:02.513Z,25.81
2023-05-19T20:35:04.122Z,25.89
2023-05-19T20:39:06.971Z,27.10
2023-05-19T20:43:08.397Z,25.26
2023-05-19T20:47:10.457Z,26.04
2023-05-19T20:51:11.903Z,26.32
2023-05-19T20:55:13.312Z,25.82
2023-05-19T20:59:14.722Z,25.46
2023-05-19T21:03:16.175Z,25.68
2023-05-19T21:07:17.828Z,25.40
2023-05-19T21:11:19.323Z,26.25
2023-05-19T21:15:20.906Z,25.50
2023-05-19T21:19:23.306Z,24.90
2023-05-19T21:23:24.809Z,25.18
2023-05-19T21:27:26.421Z,25.24
2023-05-19T21:31:27.904Z,25.29
2023-05-19T21:35:29.364Z,24.59
2023-05-19T21:39:30.759Z,25.11
2023-05-19T21:43:32.475Z,25.40
2023-05-19T21:47:33.930Z,25.27
2023-05-19T21:51:35.742Z,24.96
2023-05-19T21:55:37.124Z,25.13
2023-05-19T21:59:38.939Z,24.10
2023-05-19T22:03:40.618Z,24.90
2023-05-19T22:07:42.187Z,23.91
2023-05-19T22:11:43.650Z,25.07
2023-05-19T22:15:45.093Z,25.24
2023-05-19T22:19:46.525Z,24.44
2023-05-19T22:23:48.106Z,25.32
2023-05-19T22:27:49.605Z,24.47
2023-05-19T22:31:51.181Z,24.22
2023-05-19T22:35:52.529Z,24.81
2023-05-19T22:39:54.263Z,24.05
2023-05-19T22:43:55.692Z,24.21
2023-05-19T22:47:57.224Z,24.06
2023-05-19T22:51:58.645Z,23.70
2023-05-19T22:56:00.005Z,24.79
2023-05-19T23:00:01.531Z,24.11
2023-05-19T23:04:03.439Z,23.78
2023-05-19T23:08:05.099Z,23.58
2023-05-19T23:12:06.909Z,23.91
2023-05-19T23:16:08.429Z,23.95
2023-05-19T23:20:10.566Z,23.96
2023-05-19T23:24:12.021Z,23.88
2023-05-19T23:28:13.367Z,23.64
2023-05-19T23:32:15.280Z,23.95
2023-05-19T23:36:17.744Z,23.69
2023-05-19T23:40:19.091Z,23.53
2023-05-19T23:44:20.621Z,23.54
2023-05-19T23:48:22.046Z,23.10
2023-05-19T23:52:23.390Z,23.22
2023-05-19T23:56:24.863Z,23.81
